sensor_id;sensor_type;location;lat;lon;timestamp;pressure;altitude;pressure_sealevel;temperature;humidity
74794;BME280;63320;50.768;6.724;2023-02-28T00:00:06;101478.44;;;1.51;61.99
74794;BME280;63320;50.768;6.724;2023-02-28T00:02:32;101479.44;;;1.66;61.60
74794;BME280;63320;50.768;6.724;2023-02-28T00:04:57;101482.63;;;1.36;62.90
74794;BME280;63320;50.768;6.724;2023-02-28T00:07:24;101479.19;;;1.40;62.62
74794;BME280;63320;50.768;6.724;2023-02-28T00:09:49;101480.94;;;1.42;62.13
74794;BME280;63320;50.768;6.724;2023-02-28T00:12:14;101475.13;;;1.66;61.97
74794;BME280;63320;50.768;6.724;2023-02-28T00:14:40;101472.31;;;1.43;62.10
74794;BME280;63320;50.768;6.724;2023-02-28T00:17:05;101469.72;;;1.43;62.20
74794;BME280;63320;50.768;6.724;2023-02-28T00:19:30;101469.16;;;1.76;61.65
74794;BME280;63320;50.768;6.724;2023-02-28T00:21:56;101469.81;;;1.55;61.95
74794;BME280;63320;50.768;6.724;2023-02-28T00:24:22;101465.41;;;1.44;62.47
74794;BME280;63320;50.768;6.724;2023-02-28T00:26:48;101471.34;;;1.34;62.54
74794;BME280;63320;50.768;6.724;2023-02-28T00:29:13;101465.41;;;1.41;61.87
74794;BME280;63320;50.768;6.724;2023-02-28T00:31:38;101475.63;;;1.30;62.53
74794;BME280;63320;50.768;6.724;2023-02-28T00:34:04;101476.91;;;1.73;61.47
74794;BME280;63320;50.768;6.724;2023-02-28T00:36:29;101471.66;;;1.66;61.42
74794;BME280;63320;50.768;6.724;2023-02-28T00:38:54;101479.41;;;1.61;61.70
74794;BME280;63320;50.768;6.724;2023-02-28T00:41:21;101470.44;;;1.30;62.46
74794;BME280;63320;50.768;6.724;2023-02-28T00:43:46;101469.00;;;1.60;61.67
74794;BME280;63320;50.768;6.724;2023-02-28T00:46:12;101474.13;;;1.53;61.96
74794;BME280;63320;50.768;6.724;2023-02-28T00:48:37;101481.06;;;1.54;61.60
74794;BME280;63320;50.768;6.724;2023-02-28T00:51:03;101474.22;;;1.63;61.54
74794;BME280;63320;50.768;6.724;2023-02-28T00:53:29;101480.19;;;1.52;62.00
74794;BME280;63320;50.768;6.724;2023-02-28T00:55:54;101482.09;;;1.75;61.62
74794;BME280;63320;50.768;6.724;2023-02-28T00:58:21;101475.91;;;1.61;60.90
74794;BME280;63320;50.768;6.724;2023-02-28T01:00:46;101483.56;;;1.44;62.55
74794;BME280;63320;50.768;6.724;2023-02-28T01:03:11;101483.50;;;1.39;62.32
74794;BME280;63320;50.768;6.724;2023-02-28T01:05:37;101477.38;;;1.29;62.75
74794;BME280;63320;50.768;6.724;2023-02-28T01:08:02;101486.69;;;1.11;63.25
74794;BME280;63320;50.768;6.724;2023-02-28T01:10:28;101485.63;;;0.95;63.84
74794;BME280;63320;50.768;6.724;2023-02-28T01:12:53;101476.19;;;1.00;63.18
74794;BME280;63320;50.768;6.724;2023-02-28T01:15:20;101480.66;;;1.12;63.97
74794;BME280;63320;50.768;6.724;2023-02-28T01:17:45;101487.56;;;1.13;63.46
74794;BME280;63320;50.768;6.724;2023-02-28T01:20:11;101493.16;;;1.52;62.44
74794;BME280;63320;50.768;6.724;2023-02-28T01:22:37;101489.59;;;1.41;62.44
74794;BME280;63320;50.768;6.724;2023-02-28T01:25:02;101487.19;;;1.64;61.92
74794;BME280;63320;50.768;6.724;2023-02-28T01:27:28;101488.78;;;1.47;61.29
74794;BME280;63320;50.768;6.724;2023-02-28T01:29:53;101490.25;;;1.22;63.00
74794;BME280;63320;50.768;6.724;2023-02-28T01:32:20;101482.31;;;1.07;63.41
74794;BME280;63320;50.768;6.724;2023-02-28T01:34:45;101483.28;;;1.16;63.31
74794;BME280;63320;50.768;6.724;2023-02-28T01:37:10;101487.78;;;1.34;62.01
74794;BME280;63320;50.768;6.724;2023-02-28T01:39:36;101485.94;;;1.21;62.39
74794;BME280;63320;50.768;6.724;2023-02-28T01:42:01;101484.09;;;1.14;62.91
74794;BME280;63320;50.768;6.724;2023-02-28T01:44:55;101480.03;;;1.39;62.41
74794;BME280;63320;50.768;6.724;2023-02-28T01:47:24;101478.03;;;1.10;62.23
74794;BME280;63320;50.768;6.724;2023-02-28T01:49:51;101472.81;;;1.06;62.55
74794;BME280;63320;50.768;6.724;2023-02-28T01:52:17;101475.56;;;1.24;62.84
74794;BME280;63320;50.768;6.724;2023-02-28T01:54:44;101473.84;;;1.21;62.01
74794;BME280;63320;50.768;6.724;2023-02-28T01:57:13;101476.47;;;1.26;62.34
74794;BME280;63320;50.768;6.724;2023-02-28T01:59:43;101473.09;;;1.33;61.92
74794;BME280;63320;50.768;6.724;2023-02-28T02:02:11;101475.72;;;1.36;61.39
74794;BME280;63320;50.768;6.724;2023-02-28T02:04:41;101467.59;;;1.02;62.53
74794;BME280;63320;50.768;6.724;2023-02-28T02:07:09;101469.44;;;1.13;62.63
74794;BME280;63320;50.768;6.724;2023-02-28T02:09:34;101464.25;;;1.11;62.64
74794;BME280;63320;50.768;6.724;2023-02-28T02:12:08;101461.91;;;1.40;61.57
74794;BME280;63320;50.768;6.724;2023-02-28T02:14:57;101460.03;;;1.21;61.83
74794;BME280;63320;50.768;6.724;2023-02-28T02:17:28;101463.22;;;0.98;62.67
74794;BME280;63320;50.768;6.724;2023-02-28T02:20:41;101454.59;;;0.99;62.42
74794;BME280;63320;50.768;6.724;2023-02-28T02:29:18;101455.22;;;0.75;63.16
74794;BME280;63320;50.768;6.724;2023-02-28T02:32:11;101452.00;;;0.96;62.87
74794;BME280;63320;50.768;6.724;2023-02-28T02:34:51;101452.88;;;1.00;62.88
74794;BME280;63320;50.768;6.724;2023-02-28T02:37:27;101449.00;;;0.64;63.52
74794;BME280;63320;50.768;6.724;2023-02-28T02:40:00;101445.75;;;0.79;63.07
74794;BME280;63320;50.768;6.724;2023-02-28T02:42:30;101451.09;;;0.93;62.39
74794;BME280;63320;50.768;6.724;2023-02-28T02:45:01;101453.50;;;0.79;62.88
74794;BME280;63320;50.768;6.724;2023-02-28T02:47:30;101453.13;;;0.47;63.45
74794;BME280;63320;50.768;6.724;2023-02-28T02:50:01;101446.25;;;0.49;64.15
74794;BME280;63320;50.768;6.724;2023-02-28T02:52:32;101450.72;;;0.61;63.63
74794;BME280;63320;50.768;6.724;2023-02-28T02:55:02;101450.97;;;0.81;63.36
74794;BME280;63320;50.768;6.724;2023-02-28T02:57:32;101459.50;;;0.75;62.71
74794;BME280;63320;50.768;6.724;2023-02-28T02:59:59;101454.44;;;0.84;63.23
74794;BME280;63320;50.768;6.724;2023-02-28T03:02:26;101462.06;;;0.72;63.27
74794;BME280;63320;50.768;6.724;2023-02-28T03:04:59;101452.75;;;0.86;63.13
74794;BME280;63320;50.768;6.724;2023-02-28T03:07:26;101457.13;;;0.93;62.41
74794;BME280;63320;50.768;6.724;2023-02-28T03:09:52;101460.59;;;0.94;62.27
74794;BME280;63320;50.768;6.724;2023-02-28T03:12:18;101452.81;;;0.92;62.60
74794;BME280;63320;50.768;6.724;2023-02-28T03:14:52;101453.72;;;0.97;62.22
74794;BME280;63320;50.768;6.724;2023-02-28T03:17:30;101455.72;;;1.24;61.30
74794;BME280;63320;50.768;6.724;2023-02-28T03:20:06;101449.72;;;1.30;61.16
74794;BME280;63320;50.768;6.724;2023-02-28T03:22:41;101443.63;;;1.22;61.33
74794;BME280;63320;50.768;6.724;2023-02-28T03:25:15;101443.94;;;0.73;62.41
74794;BME280;63320;50.768;6.724;2023-02-28T03:27:47;101436.53;;;1.04;61.96
74794;BME280;63320;50.768;6.724;2023-02-28T03:30:23;101443.13;;;0.77;62.51
74794;BME280;63320;50.768;6.724;2023-02-28T03:32:53;101436.34;;;0.87;63.13
74794;BME280;63320;50.768;6.724;2023-02-28T03:35:23;101436.34;;;0.87;62.37
74794;BME280;63320;50.768;6.724;2023-02-28T03:37:53;101439.88;;;0.94;62.57
74794;BME280;63320;50.768;6.724;2023-02-28T03:40:22;101438.19;;;0.96;62.58
74794;BME280;63320;50.768;6.724;2023-02-28T03:42:53;101445.09;;;0.98;62.43
74794;BME280;63320;50.768;6.724;2023-02-28T03:45:22;101430.16;;;0.74;62.40
74794;BME280;63320;50.768;6.724;2023-02-28T03:47:52;101448.22;;;0.70;62.95
74794;BME280;63320;50.768;6.724;2023-02-28T03:50:22;101441.47;;;0.81;62.69
74794;BME280;63320;50.768;6.724;2023-02-28T03:52:51;101442.28;;;0.80;62.43
74794;BME280;63320;50.768;6.724;2023-02-28T03:55:18;101441.19;;;0.58;63.08
74794;BME280;63320;50.768;6.724;2023-02-28T03:57:53;101440.38;;;0.64;62.94
74794;BME280;63320;50.768;6.724;2023-02-28T04:00:27;101435.44;;;0.82;62.27
74794;BME280;63320;50.768;6.724;2023-02-28T04:02:53;101439.69;;;0.77;62.35
74794;BME280;63320;50.768;6.724;2023-02-28T04:05:19;101443.81;;;0.61;62.93
74794;BME280;63320;50.768;6.724;2023-02-28T04:07:45;101441.19;;;0.58;63.00
74794;BME280;63320;50.768;6.724;2023-02-28T04:10:11;101443.72;;;0.54;62.47
74794;BME280;63320;50.768;6.724;2023-02-28T04:12:36;101440.38;;;0.61;62.16
74794;BME280;63320;50.768;6.724;2023-02-28T04:15:02;101443.84;;;0.64;62.63
74794;BME280;63320;50.768;6.724;2023-02-28T04:17:28;101435.03;;;0.48;62.51
74794;BME280;63320;50.768;6.724;2023-02-28T04:19:53;101438.31;;;0.35;62.61
74794;BME280;63320;50.768;6.724;2023-02-28T04:22:18;101444.50;;;0.46;62.57
74794;BME280;63320;50.768;6.724;2023-02-28T04:24:45;101447.22;;;0.56;62.27
74794;BME280;63320;50.768;6.724;2023-02-28T04:27:11;101443.81;;;0.61;61.91
74794;BME280;63320;50.768;6.724;2023-02-28T04:29:36;101451.06;;;0.91;60.44
74794;BME280;63320;50.768;6.724;2023-02-28T04:32:02;101440.53;;;0.76;60.79
74794;BME280;63320;50.768;6.724;2023-02-28T04:34:29;101437.31;;;0.97;59.99
74794;BME280;63320;50.768;6.724;2023-02-28T04:36:55;101438.53;;;0.54;60.06
74794;BME280;63320;50.768;6.724;2023-02-28T04:39:21;101441.97;;;0.52;60.25
74794;BME280;63320;50.768;6.724;2023-02-28T04:41:49;101441.53;;;0.90;59.35
74794;BME280;63320;50.768;6.724;2023-02-28T04:44:15;101443.13;;;0.76;59.74
74794;BME280;63320;50.768;6.724;2023-02-28T04:46:40;101446.66;;;0.83;59.22
74794;BME280;63320;50.768;6.724;2023-02-28T04:49:06;101452.47;;;0.63;59.57
74794;BME280;63320;50.768;6.724;2023-02-28T04:51:31;101454.34;;;0.76;59.30
74794;BME280;63320;50.768;6.724;2023-02-28T04:53:56;101448.94;;;0.57;59.92
74794;BME280;63320;50.768;6.724;2023-02-28T04:56:22;101452.31;;;0.52;59.95
74794;BME280;63320;50.768;6.724;2023-02-28T04:58:49;101455.69;;;0.45;60.06
74794;BME280;63320;50.768;6.724;2023-02-28T05:01:18;101464.22;;;0.40;60.31
74794;BME280;63320;50.768;6.724;2023-02-28T05:03:44;101466.50;;;0.15;61.23
74794;BME280;63320;50.768;6.724;2023-02-28T05:06:10;101462.84;;;0.03;61.71
74794;BME280;63320;50.768;6.724;2023-02-28T05:08:36;101467.56;;;0.31;60.89
74794;BME280;63320;50.768;6.724;2023-02-28T05:11:02;101468.72;;;0.51;60.34
74794;BME280;63320;50.768;6.724;2023-02-28T05:13:28;101466.13;;;0.51;60.01
74794;BME280;63320;50.768;6.724;2023-02-28T05:15:55;101468.53;;;0.39;60.22
74794;BME280;63320;50.768;6.724;2023-02-28T05:18:21;101471.03;;;0.32;59.34
74794;BME280;63320;50.768;6.724;2023-02-28T05:20:46;101470.22;;;0.36;60.04
74794;BME280;63320;50.768;6.724;2023-02-28T05:23:13;101463.41;;;0.42;59.29
74794;BME280;63320;50.768;6.724;2023-02-28T05:25:39;101465.34;;;0.60;59.34
74794;BME280;63320;50.768;6.724;2023-02-28T05:28:05;101468.13;;;0.74;58.40
74794;BME280;63320;50.768;6.724;2023-02-28T05:30:31;101466.94;;;0.47;58.66
74794;BME280;63320;50.768;6.724;2023-02-28T05:32:58;101466.00;;;0.42;58.56
74794;BME280;63320;50.768;6.724;2023-02-28T05:35:24;101469.63;;;0.57;58.52
74794;BME280;63320;50.768;6.724;2023-02-28T05:37:49;101460.94;;;0.51;58.16
74794;BME280;63320;50.768;6.724;2023-02-28T05:40:15;101465.16;;;0.45;58.34
74794;BME280;63320;50.768;6.724;2023-02-28T05:42:41;101468.53;;;0.39;58.66
74794;BME280;63320;50.768;6.724;2023-02-28T05:45:08;101470.91;;;0.22;59.13
74794;BME280;63320;50.768;6.724;2023-02-28T05:47:33;101465.34;;;-0.04;59.51
74794;BME280;63320;50.768;6.724;2023-02-28T05:50:00;101473.34;;;0.15;59.63
74794;BME280;63320;50.768;6.724;2023-02-28T05:52:25;101466.06;;;0.45;59.13
74794;BME280;63320;50.768;6.724;2023-02-28T05:54:51;101471.25;;;0.48;58.46
74794;BME280;63320;50.768;6.724;2023-02-28T05:57:16;101473.34;;;0.13;59.50
74794;BME280;63320;50.768;6.724;2023-02-28T05:59:41;101471.00;;;0.30;59.06
74794;BME280;63320;50.768;6.724;2023-02-28T06:02:11;101471.84;;;0.28;59.33
74794;BME280;63320;50.768;6.724;2023-02-28T06:04:37;101474.63;;;0.41;59.25
74794;BME280;63320;50.768;6.724;2023-02-28T06:07:03;101476.88;;;0.18;59.46
74794;BME280;63320;50.768;6.724;2023-02-28T06:09:29;101468.25;;;0.19;59.09
74794;BME280;63320;50.768;6.724;2023-02-28T06:11:54;101471.22;;;0.45;58.88
74794;BME280;63320;50.768;6.724;2023-02-28T06:14:20;101461.81;;;0.54;58.67
74794;BME280;63320;50.768;6.724;2023-02-28T06:16:46;101464.13;;;0.32;58.95
74794;BME280;63320;50.768;6.724;2023-02-28T06:19:12;101465.94;;;0.39;58.52
74794;BME280;63320;50.768;6.724;2023-02-28T06:21:37;101469.47;;;0.44;58.53
74794;BME280;63320;50.768;6.724;2023-02-28T06:24:05;101478.53;;;0.15;59.61
74794;BME280;63320;50.768;6.724;2023-02-28T06:26:30;101469.28;;;0.31;58.44
74794;BME280;63320;50.768;6.724;2023-02-28T06:28:56;101472.78;;;0.34;58.80
74794;BME280;63320;50.768;6.724;2023-02-28T06:31:22;101471.84;;;0.29;59.08
74794;BME280;63320;50.768;6.724;2023-02-28T06:33:48;101483.84;;;0.24;59.49
74794;BME280;63320;50.768;6.724;2023-02-28T06:36:15;101483.97;;;0.33;59.56
74794;BME280;63320;50.768;6.724;2023-02-28T06:38:41;101494.25;;;0.27;59.71
74794;BME280;63320;50.768;6.724;2023-02-28T06:41:08;101494.41;;;0.38;59.23
74794;BME280;63320;50.768;6.724;2023-02-28T06:43:35;101487.44;;;0.34;59.38
74794;BME280;63320;50.768;6.724;2023-02-28T06:46:04;101502.78;;;0.21;59.79
74794;BME280;63320;50.768;6.724;2023-02-28T06:48:30;101503.75;;;0.30;59.41
74794;BME280;63320;50.768;6.724;2023-02-28T06:51:02;101511.44;;;0.25;59.44
74794;BME280;63320;50.768;6.724;2023-02-28T06:53:27;101514.16;;;0.34;59.53
74794;BME280;63320;50.768;6.724;2023-02-28T06:55:53;101517.59;;;0.33;59.76
74794;BME280;63320;50.768;6.724;2023-02-28T06:58:19;101516.72;;;0.31;59.44
74794;BME280;63320;50.768;6.724;2023-02-28T07:00:45;101524.34;;;0.22;59.79
74794;BME280;63320;50.768;6.724;2023-02-28T07:03:11;101533.00;;;0.24;59.91
74794;BME280;63320;50.768;6.724;2023-02-28T07:05:38;101531.53;;;0.41;60.18
74794;BME280;63320;50.768;6.724;2023-02-28T07:08:05;101537.31;;;0.25;59.92
74794;BME280;63320;50.768;6.724;2023-02-28T07:10:30;101530.69;;;0.44;59.72
74794;BME280;63320;50.768;6.724;2023-02-28T07:12:56;101539.31;;;0.43;59.65
74794;BME280;63320;50.768;6.724;2023-02-28T07:15:22;101535.63;;;0.25;59.55
74794;BME280;63320;50.768;6.724;2023-02-28T07:17:48;101537.38;;;0.30;59.60
74794;BME280;63320;50.768;6.724;2023-02-28T07:20:13;101534.00;;;0.34;59.03
74794;BME280;63320;50.768;6.724;2023-02-28T07:22:39;101541.25;;;0.58;58.78
74794;BME280;63320;50.768;6.724;2023-02-28T07:25:04;101533.84;;;0.24;59.05
74794;BME280;63320;50.768;6.724;2023-02-28T07:27:30;101533.13;;;0.33;59.12
74794;BME280;63320;50.768;6.724;2023-02-28T07:29:55;101534.34;;;0.58;58.42
74794;BME280;63320;50.768;6.724;2023-02-28T07:32:22;101532.69;;;0.63;58.08
74794;BME280;63320;50.768;6.724;2023-02-28T07:34:47;101533.63;;;0.68;58.43
74794;BME280;63320;50.768;6.724;2023-02-28T07:37:12;101533.56;;;0.64;58.42
74794;BME280;63320;50.768;6.724;2023-02-28T07:39:38;101526.84;;;0.76;58.13
74794;BME280;63320;50.768;6.724;2023-02-28T07:42:04;101526.91;;;0.84;57.96
74794;BME280;63320;50.768;6.724;2023-02-28T07:44:29;101526.84;;;0.78;57.35
74794;BME280;63320;50.768;6.724;2023-02-28T07:46:55;101530.19;;;0.69;57.53
74794;BME280;63320;50.768;6.724;2023-02-28T07:49:21;101521.91;;;0.96;56.62
74794;BME280;63320;50.768;6.724;2023-02-28T07:51:47;101528.88;;;1.03;56.53
74794;BME280;63320;50.768;6.724;2023-02-28T07:54:12;101517.78;;;1.12;55.92
74794;BME280;63320;50.768;6.724;2023-02-28T07:56:37;101529.75;;;1.04;56.18
74794;BME280;63320;50.768;6.724;2023-02-28T07:59:03;101522.03;;;1.09;55.25
74794;BME280;63320;50.768;6.724;2023-02-28T08:01:28;101527.38;;;1.21;55.71
74794;BME280;63320;50.768;6.724;2023-02-28T08:03:53;101528.25;;;1.24;55.53
74794;BME280;63320;50.768;6.724;2023-02-28T08:06:22;101532.56;;;1.24;55.68
74794;BME280;63320;50.768;6.724;2023-02-28T08:08:48;101526.53;;;1.22;55.21
74794;BME280;63320;50.768;6.724;2023-02-28T08:11:14;101525.63;;;1.20;55.77
74794;BME280;63320;50.768;6.724;2023-02-28T08:13:40;101518.75;;;1.25;54.97
74794;BME280;63320;50.768;6.724;2023-02-28T08:16:06;101523.94;;;1.25;54.63
74794;BME280;63320;50.768;6.724;2023-02-28T08:18:32;101521.50;;;1.37;53.91
74794;BME280;63320;50.768;6.724;2023-02-28T08:20:57;101521.41;;;1.26;53.95
74794;BME280;63320;50.768;6.724;2023-02-28T08:23:24;101521.50;;;1.36;53.75
74794;BME280;63320;50.768;6.724;2023-02-28T08:25:53;101521.44;;;1.33;53.09
74794;BME280;63320;50.768;6.724;2023-02-28T08:28:18;101523.13;;;1.27;53.03
74794;BME280;63320;50.768;6.724;2023-02-28T08:30:43;101520.47;;;1.21;53.11
74794;BME280;63320;50.768;6.724;2023-02-28T08:33:09;101526.78;;;1.48;52.97
74794;BME280;63320;50.768;6.724;2023-02-28T08:35:35;101524.16;;;1.42;53.00
74794;BME280;63320;50.768;6.724;2023-02-28T08:38:01;101520.75;;;1.46;53.24
74794;BME280;63320;50.768;6.724;2023-02-28T08:40:27;101528.31;;;1.29;52.14
74794;BME280;63320;50.768;6.724;2023-02-28T08:42:53;101525.81;;;1.37;52.41
74794;BME280;63320;50.768;6.724;2023-02-28T08:45:18;101522.41;;;1.42;51.66
74794;BME280;63320;50.768;6.724;2023-02-28T08:47:43;101530.97;;;1.35;51.50
74794;BME280;63320;50.768;6.724;2023-02-28T08:50:09;101532.94;;;1.56;51.43
74794;BME280;63320;50.768;6.724;2023-02-28T08:52:35;101534.47;;;1.37;51.15
74794;BME280;63320;50.768;6.724;2023-02-28T08:55:00;101524.25;;;1.55;51.10
74794;BME280;63320;50.768;6.724;2023-02-28T08:57:27;101536.38;;;1.57;50.33
74794;BME280;63320;50.768;6.724;2023-02-28T08:59:52;101538.81;;;1.41;50.14
74794;BME280;63320;50.768;6.724;2023-02-28T09:02:18;101537.97;;;1.42;49.47
74794;BME280;63320;50.768;6.724;2023-02-28T09:04:44;101537.44;;;1.77;49.34
74794;BME280;63320;50.768;6.724;2023-02-28T09:07:09;101534.63;;;1.51;49.81
74794;BME280;63320;50.768;6.724;2023-02-28T09:09:34;101540.03;;;1.78;48.94
74794;BME280;63320;50.768;6.724;2023-02-28T09:12:00;101536.66;;;1.87;48.54
74794;BME280;63320;50.768;6.724;2023-02-28T09:14:26;101533.16;;;1.82;49.20
74794;BME280;63320;50.768;6.724;2023-02-28T09:16:52;101533.03;;;1.67;48.39
74794;BME280;63320;50.768;6.724;2023-02-28T09:19:17;101538.19;;;1.64;48.38
74794;BME280;63320;50.768;6.724;2023-02-28T09:21:42;101531.34;;;1.72;48.52
74794;BME280;63320;50.768;6.724;2023-02-28T09:24:08;101528.75;;;1.73;48.76
74794;BME280;63320;50.768;6.724;2023-02-28T09:26:33;101534.03;;;1.86;48.40
74794;BME280;63320;50.768;6.724;2023-02-28T09:28:58;101522.91;;;1.97;47.32
74794;BME280;63320;50.768;6.724;2023-02-28T09:31:27;101527.16;;;1.89;47.14
74794;BME280;63320;50.768;6.724;2023-02-28T09:33:55;101525.47;;;1.91;46.20
74794;BME280;63320;50.768;6.724;2023-02-28T09:36:21;101526.38;;;1.96;45.95
74794;BME280;63320;50.768;6.724;2023-02-28T09:38:47;101524.69;;;2.04;46.38
74794;BME280;63320;50.768;6.724;2023-02-28T09:41:14;101523.91;;;2.13;45.40
74794;BME280;63320;50.768;6.724;2023-02-28T09:43:43;101510.94;;;2.12;45.42
74794;BME280;63320;50.768;6.724;2023-02-28T09:46:18;101525.63;;;2.14;46.01
74794;BME280;63320;50.768;6.724;2023-02-28T09:48:48;101513.50;;;2.08;44.76
74794;BME280;63320;50.768;6.724;2023-02-28T09:51:26;101522.13;;;2.11;45.48
74794;BME280;63320;50.768;6.724;2023-02-28T09:53:53;101516.22;;;2.28;45.00
74794;BME280;63320;50.768;6.724;2023-02-28T09:56:21;101515.28;;;2.17;45.21
74794;BME280;63320;50.768;6.724;2023-02-28T09:58:51;101523.94;;;2.21;44.54
74794;BME280;63320;50.768;6.724;2023-02-28T10:01:21;101513.59;;;2.24;43.79
74794;BME280;63320;50.768;6.724;2023-02-28T10:03:55;101517.94;;;2.28;45.19
74794;BME280;63320;50.768;6.724;2023-02-28T10:06:26;101519.66;;;2.23;44.27
74794;BME280;63320;50.768;6.724;2023-02-28T10:08:58;101519.69;;;2.27;44.36
74794;BME280;63320;50.768;6.724;2023-02-28T10:11:26;101513.66;;;2.31;44.40
74794;BME280;63320;50.768;6.724;2023-02-28T10:13:54;101524.97;;;2.41;43.18
74794;BME280;63320;50.768;6.724;2023-02-28T10:16:25;101525.78;;;2.34;43.84
74794;BME280;63320;50.768;6.724;2023-02-28T10:18:57;101514.56;;;2.40;43.43
74794;BME280;63320;50.768;6.724;2023-02-28T10:21:28;101523.28;;;2.49;43.98
74794;BME280;63320;50.768;6.724;2023-02-28T10:24:02;101518.09;;;2.54;43.25
74794;BME280;63320;50.768;6.724;2023-02-28T10:26:28;101517.28;;;2.56;43.74
74794;BME280;63320;50.768;6.724;2023-02-28T10:28:54;101518.16;;;2.63;43.90
74794;BME280;63320;50.768;6.724;2023-02-28T10:31:20;101511.25;;;2.64;44.18
74794;BME280;63320;50.768;6.724;2023-02-28T10:33:47;101517.28;;;2.58;43.29
74794;BME280;63320;50.768;6.724;2023-02-28T10:36:15;101505.22;;;2.68;43.66
74794;BME280;63320;50.768;6.724;2023-02-28T10:38:43;101500.00;;;2.69;43.16
74794;BME280;63320;50.768;6.724;2023-02-28T10:41:10;101504.31;;;2.66;43.04
74794;BME280;63320;50.768;6.724;2023-02-28T10:43:37;101503.50;;;2.76;42.84
74794;BME280;63320;50.768;6.724;2023-02-28T10:46:09;101509.56;;;2.81;43.50
74794;BME280;63320;50.768;6.724;2023-02-28T10:48:37;101499.19;;;2.78;43.01
74794;BME280;63320;50.768;6.724;2023-02-28T10:51:04;101509.53;;;2.69;42.40
74794;BME280;63320;50.768;6.724;2023-02-28T10:53:38;101504.44;;;2.89;42.29
74794;BME280;63320;50.768;6.724;2023-02-28T10:56:09;101500.13;;;2.98;42.74
74794;BME280;63320;50.768;6.724;2023-02-28T10:58:49;101494.00;;;2.84;41.58
74794;BME280;63320;50.768;6.724;2023-02-28T11:01:16;101494.06;;;2.99;41.98
74794;BME280;63320;50.768;6.724;2023-02-28T11:03:43;101489.75;;;3.04;41.89
74794;BME280;63320;50.768;6.724;2023-02-28T11:06:15;101494.94;;;3.06;42.74
74794;BME280;63320;50.768;6.724;2023-02-28T11:08:48;101497.53;;;2.98;42.18
74794;BME280;63320;50.768;6.724;2023-02-28T11:11:14;101491.47;;;2.96;41.86
74794;BME280;63320;50.768;6.724;2023-02-28T11:13:40;101477.66;;;3.09;41.66
74794;BME280;63320;50.768;6.724;2023-02-28T11:16:09;101482.03;;;3.23;42.73
74794;BME280;63320;50.768;6.724;2023-02-28T11:18:40;101482.84;;;3.16;41.12
74794;BME280;63320;50.768;6.724;2023-02-28T11:21:08;101479.41;;;3.18;42.03
74794;BME280;63320;50.768;6.724;2023-02-28T11:23:36;101476.00;;;3.44;42.53
74794;BME280;63320;50.768;6.724;2023-02-28T11:26:04;101489.00;;;3.56;42.90
74794;BME280;63320;50.768;6.724;2023-02-28T11:28:31;101482.06;;;3.56;41.95
74794;BME280;63320;50.768;6.724;2023-02-28T11:31:03;101485.53;;;3.55;42.37
74794;BME280;63320;50.768;6.724;2023-02-28T11:33:31;101482.06;;;3.69;41.84
74794;BME280;63320;50.768;6.724;2023-02-28T11:35:59;101482.06;;;3.59;41.05
74794;BME280;63320;50.768;6.724;2023-02-28T11:38:26;101485.53;;;3.60;41.30
74794;BME280;63320;50.768;6.724;2023-02-28T11:41:05;101479.47;;;3.66;41.15
74794;BME280;63320;50.768;6.724;2023-02-28T11:43:45;101481.22;;;3.74;40.53
74794;BME280;63320;50.768;6.724;2023-02-28T11:46:22;101479.50;;;3.72;40.36
74794;BME280;63320;50.768;6.724;2023-02-28T11:48:58;101464.72;;;3.86;41.09
74794;BME280;63320;50.768;6.724;2023-02-28T11:51:31;101469.06;;;3.90;40.59
74794;BME280;63320;50.768;6.724;2023-02-28T11:54:22;101473.41;;;3.97;41.36
74794;BME280;63320;50.768;6.724;2023-02-28T11:56:53;101474.25;;;4.01;40.20
74794;BME280;63320;50.768;6.724;2023-02-28T11:59:38;101476.84;;;4.08;41.37
74794;BME280;63320;50.768;6.724;2023-02-28T12:02:22;101463.00;;;3.99;41.10
74794;BME280;63320;50.768;6.724;2023-02-28T12:04:54;101475.13;;;3.80;39.39
74794;BME280;63320;50.768;6.724;2023-02-28T12:07:32;101476.00;;;3.76;38.88
74794;BME280;63320;50.768;6.724;2023-02-28T12:10:09;101468.22;;;3.83;38.52
74794;BME280;63320;50.768;6.724;2023-02-28T12:12:45;101460.38;;;3.85;38.85
74794;BME280;63320;50.768;6.724;2023-02-28T12:18:44;101465.59;;;3.99;38.64
74794;BME280;63320;50.768;6.724;2023-02-28T12:21:18;101457.78;;;4.00;38.93
74794;BME280;63320;50.768;6.724;2023-02-28T12:23:59;101464.69;;;4.01;37.85
74794;BME280;63320;50.768;6.724;2023-02-28T12:26:34;101459.53;;;3.97;38.13
74794;BME280;63320;50.768;6.724;2023-02-28T12:29:10;101454.31;;;3.98;38.78
74794;BME280;63320;50.768;6.724;2023-02-28T12:31:41;101447.34;;;4.06;38.75
74794;BME280;63320;50.768;6.724;2023-02-28T12:34:10;101449.09;;;4.13;38.60
74794;BME280;63320;50.768;6.724;2023-02-28T12:36:37;101454.25;;;4.16;39.06
74794;BME280;63320;50.768;6.724;2023-02-28T12:39:07;101450.81;;;4.11;37.32
74794;BME280;63320;50.768;6.724;2023-02-28T12:41:37;101442.16;;;4.08;38.55
74794;BME280;63320;50.768;6.724;2023-02-28T12:44:10;101438.59;;;4.39;39.03
74794;BME280;63320;50.768;6.724;2023-02-28T12:46:41;101434.22;;;4.46;38.77
74794;BME280;63320;50.768;6.724;2023-02-28T12:49:10;101437.66;;;4.56;38.40
74794;BME280;63320;50.768;6.724;2023-02-28T12:51:37;101433.31;;;4.56;38.00
74794;BME280;63320;50.768;6.724;2023-02-28T12:54:10;101429.78;;;4.71;38.36
74794;BME280;63320;50.768;6.724;2023-02-28T12:56:43;101426.34;;;4.61;37.78
74794;BME280;63320;50.768;6.724;2023-02-28T12:59:16;101428.09;;;4.67;37.95
74794;BME280;63320;50.768;6.724;2023-02-28T13:02:00;101428.88;;;4.80;38.22
74794;BME280;63320;50.768;6.724;2023-02-28T13:04:47;101413.91;;;5.18;38.16
74794;BME280;63320;50.768;6.724;2023-02-28T13:10:12;101409.19;;;5.62;36.22
74794;BME280;63320;50.768;6.724;2023-02-28T13:12:47;101410.91;;;5.67;36.35
74794;BME280;63320;50.768;6.724;2023-02-28T13:15:19;101403.66;;;5.97;37.12
74794;BME280;63320;50.768;6.724;2023-02-28T13:17:48;101403.69;;;5.95;35.51